Terminal Aerodrome Forecast
Issued by NWS Houston/Galveston, TX

Home | Current Version | Previous Version | Text Only | Print | Product List | Glossary On
Versions: 1 2 3 4 5 6 7 8 9 10 11 12 13 14 15 16 17 18 19 20
000
FTUS44 KHGX 221934 AAA
TAFGLS
TAF AMD
KGLS 221934Z 2220/2318 23017KT P6SM VCSH SCT025 BKN050
     FM230000 20014G21KT P6SM BKN040 OVC070
     FM230800 19015G22KT P6SM BKN020=

USA.gov is the U.S. government's official web portal to all federal, state and local government web resources and services.